sensor_id;sensor_type;location;lat;lon;timestamp;P1;durP1;ratioP1;P2;durP2;ratioP2
16063;SDS011;8136;53.172;8.256;2023-03-04T00:01:21;8.60;;;2.10;;
16063;SDS011;8136;53.172;8.256;2023-03-04T00:03:47;12.60;;;2.57;;
16063;SDS011;8136;53.172;8.256;2023-03-04T00:06:16;10.90;;;2.53;;
16063;SDS011;8136;53.172;8.256;2023-03-04T00:08:42;6.70;;;2.20;;
16063;SDS011;8136;53.172;8.256;2023-03-04T00:11:09;13.90;;;2.30;;
16063;SDS011;8136;53.172;8.256;2023-03-04T00:13:36;9.87;;;2.40;;
16063;SDS011;8136;53.172;8.256;2023-03-04T00:16:03;9.20;;;1.90;;
16063;SDS011;8136;53.172;8.256;2023-03-04T00:18:30;11.63;;;2.43;;
16063;SDS011;8136;53.172;8.256;2023-03-04T00:20:57;13.70;;;2.37;;
16063;SDS011;8136;53.172;8.256;2023-03-04T00:23:25;8.00;;;2.07;;
16063;SDS011;8136;53.172;8.256;2023-03-04T00:25:52;13.93;;;2.23;;
16063;SDS011;8136;53.172;8.256;2023-03-04T00:28:18;11.07;;;2.37;;
16063;SDS011;8136;53.172;8.256;2023-03-04T00:30:45;13.40;;;2.23;;
16063;SDS011;8136;53.172;8.256;2023-03-04T00:33:12;11.70;;;2.17;;
16063;SDS011;8136;53.172;8.256;2023-03-04T00:35:39;12.07;;;1.67;;
16063;SDS011;8136;53.172;8.256;2023-03-04T00:38:06;7.60;;;2.30;;
16063;SDS011;8136;53.172;8.256;2023-03-04T00:40:34;10.60;;;2.00;;
16063;SDS011;8136;53.172;8.256;2023-03-04T00:43:01;11.87;;;1.90;;
16063;SDS011;8136;53.172;8.256;2023-03-04T00:45:27;9.57;;;2.00;;
16063;SDS011;8136;53.172;8.256;2023-03-04T00:47:54;5.90;;;1.60;;
16063;SDS011;8136;53.172;8.256;2023-03-04T00:50:21;8.43;;;1.90;;
16063;SDS011;8136;53.172;8.256;2023-03-04T00:52:48;9.37;;;1.70;;
16063;SDS011;8136;53.172;8.256;2023-03-04T00:55:14;10.77;;;2.43;;
16063;SDS011;8136;53.172;8.256;2023-03-04T00:57:43;8.23;;;2.00;;
16063;SDS011;8136;53.172;8.256;2023-03-04T01:00:10;8.43;;;1.70;;
16063;SDS011;8136;53.172;8.256;2023-03-04T01:02:38;7.20;;;1.67;;
16063;SDS011;8136;53.172;8.256;2023-03-04T01:05:05;8.67;;;1.93;;
16063;SDS011;8136;53.172;8.256;2023-03-04T01:07:32;8.33;;;1.87;;
16063;SDS011;8136;53.172;8.256;2023-03-04T01:09:59;5.90;;;1.57;;
16063;SDS011;8136;53.172;8.256;2023-03-04T01:12:26;10.03;;;1.90;;
16063;SDS011;8136;53.172;8.256;2023-03-04T01:14:54;8.07;;;1.67;;
16063;SDS011;8136;53.172;8.256;2023-03-04T01:17:21;7.83;;;1.77;;
16063;SDS011;8136;53.172;8.256;2023-03-04T01:19:48;7.07;;;1.60;;
16063;SDS011;8136;53.172;8.256;2023-03-04T01:22:15;9.40;;;1.77;;
16063;SDS011;8136;53.172;8.256;2023-03-04T01:24:43;13.63;;;1.93;;
16063;SDS011;8136;53.172;8.256;2023-03-04T01:27:09;10.23;;;2.10;;
16063;SDS011;8136;53.172;8.256;2023-03-04T01:29:36;10.47;;;1.70;;
16063;SDS011;8136;53.172;8.256;2023-03-04T01:32:04;8.90;;;1.70;;
16063;SDS011;8136;53.172;8.256;2023-03-04T01:34:31;11.57;;;2.10;;
16063;SDS011;8136;53.172;8.256;2023-03-04T01:36:58;11.20;;;1.83;;
16063;SDS011;8136;53.172;8.256;2023-03-04T01:39:25;6.80;;;1.73;;
16063;SDS011;8136;53.172;8.256;2023-03-04T01:41:52;7.70;;;1.50;;
16063;SDS011;8136;53.172;8.256;2023-03-04T01:44:19;8.63;;;1.60;;
16063;SDS011;8136;53.172;8.256;2023-03-04T01:46:46;8.07;;;1.43;;
16063;SDS011;8136;53.172;8.256;2023-03-04T01:49:16;6.87;;;1.17;;
16063;SDS011;8136;53.172;8.256;2023-03-04T01:51:45;10.50;;;1.90;;
16063;SDS011;8136;53.172;8.256;2023-03-04T01:54:14;8.90;;;1.97;;
16063;SDS011;8136;53.172;8.256;2023-03-04T01:56:40;12.10;;;1.83;;
16063;SDS011;8136;53.172;8.256;2023-03-04T01:59:11;7.17;;;1.67;;
16063;SDS011;8136;53.172;8.256;2023-03-04T02:01:40;7.07;;;1.60;;
16063;SDS011;8136;53.172;8.256;2023-03-04T02:04:09;7.50;;;1.90;;
16063;SDS011;8136;53.172;8.256;2023-03-04T02:06:39;6.63;;;1.50;;
16063;SDS011;8136;53.172;8.256;2023-03-04T02:09:06;7.03;;;1.57;;
16063;SDS011;8136;53.172;8.256;2023-03-04T02:11:33;9.50;;;1.60;;
16063;SDS011;8136;53.172;8.256;2023-03-04T02:14:02;7.67;;;1.47;;
16063;SDS011;8136;53.172;8.256;2023-03-04T02:16:29;8.40;;;1.57;;
16063;SDS011;8136;53.172;8.256;2023-03-04T02:18:56;12.07;;;1.73;;
16063;SDS011;8136;53.172;8.256;2023-03-04T02:21:24;8.23;;;1.60;;
16063;SDS011;8136;53.172;8.256;2023-03-04T02:23:56;11.83;;;1.80;;
16063;SDS011;8136;53.172;8.256;2023-03-04T02:26:30;9.40;;;2.03;;
16063;SDS011;8136;53.172;8.256;2023-03-04T02:28:59;6.10;;;1.47;;
16063;SDS011;8136;53.172;8.256;2023-03-04T02:31:28;11.37;;;2.20;;
16063;SDS011;8136;53.172;8.256;2023-03-04T02:33:57;8.43;;;2.00;;
16063;SDS011;8136;53.172;8.256;2023-03-04T02:36:26;8.57;;;2.03;;
16063;SDS011;8136;53.172;8.256;2023-03-04T02:38:54;6.13;;;1.27;;
16063;SDS011;8136;53.172;8.256;2023-03-04T02:41:21;7.87;;;1.30;;
16063;SDS011;8136;53.172;8.256;2023-03-04T02:43:53;4.93;;;1.27;;
16063;SDS011;8136;53.172;8.256;2023-03-04T02:46:20;9.37;;;2.23;;
16063;SDS011;8136;53.172;8.256;2023-03-04T02:48:48;8.97;;;1.23;;
16063;SDS011;8136;53.172;8.256;2023-03-04T02:51:15;4.40;;;1.50;;
16063;SDS011;8136;53.172;8.256;2023-03-04T02:53:42;8.37;;;1.40;;
16063;SDS011;8136;53.172;8.256;2023-03-04T02:56:09;9.23;;;2.10;;
16063;SDS011;8136;53.172;8.256;2023-03-04T02:58:36;8.20;;;1.40;;
16063;SDS011;8136;53.172;8.256;2023-03-04T03:01:05;6.57;;;1.43;;
16063;SDS011;8136;53.172;8.256;2023-03-04T03:03:32;10.67;;;2.17;;
16063;SDS011;8136;53.172;8.256;2023-03-04T03:05:59;5.90;;;1.47;;
16063;SDS011;8136;53.172;8.256;2023-03-04T03:08:25;8.20;;;1.70;;
16063;SDS011;8136;53.172;8.256;2023-03-04T03:10:52;6.37;;;1.20;;
16063;SDS011;8136;53.172;8.256;2023-03-04T03:13:19;8.43;;;1.30;;
16063;SDS011;8136;53.172;8.256;2023-03-04T03:15:46;7.73;;;1.30;;
16063;SDS011;8136;53.172;8.256;2023-03-04T03:18:14;6.63;;;1.57;;
16063;SDS011;8136;53.172;8.256;2023-03-04T03:20:41;6.07;;;1.50;;
16063;SDS011;8136;53.172;8.256;2023-03-04T03:23:07;6.17;;;1.17;;
16063;SDS011;8136;53.172;8.256;2023-03-04T03:25:34;5.90;;;1.33;;
16063;SDS011;8136;53.172;8.256;2023-03-04T03:28:01;7.20;;;1.47;;
16063;SDS011;8136;53.172;8.256;2023-03-04T03:30:28;8.93;;;1.47;;
16063;SDS011;8136;53.172;8.256;2023-03-04T03:32:54;8.67;;;1.50;;
16063;SDS011;8136;53.172;8.256;2023-03-04T03:35:23;9.63;;;1.47;;
16063;SDS011;8136;53.172;8.256;2023-03-04T03:37:50;6.70;;;1.27;;
16063;SDS011;8136;53.172;8.256;2023-03-04T03:40:17;7.43;;;1.40;;
16063;SDS011;8136;53.172;8.256;2023-03-04T03:42:43;6.70;;;1.87;;
16063;SDS011;8136;53.172;8.256;2023-03-04T03:45:10;7.20;;;1.37;;
16063;SDS011;8136;53.172;8.256;2023-03-04T03:47:37;9.93;;;1.73;;
16063;SDS011;8136;53.172;8.256;2023-03-04T03:50:04;4.80;;;1.20;;
16063;SDS011;8136;53.172;8.256;2023-03-04T03:52:33;5.43;;;1.47;;
16063;SDS011;8136;53.172;8.256;2023-03-04T03:55:00;5.67;;;0.97;;
16063;SDS011;8136;53.172;8.256;2023-03-04T03:57:27;3.60;;;0.97;;
16063;SDS011;8136;53.172;8.256;2023-03-04T03:59:53;6.03;;;1.40;;
16063;SDS011;8136;53.172;8.256;2023-03-04T04:02:20;4.40;;;1.60;;
16063;SDS011;8136;53.172;8.256;2023-03-04T04:04:48;6.67;;;1.20;;
16063;SDS011;8136;53.172;8.256;2023-03-04T04:07:15;4.23;;;1.10;;
16063;SDS011;8136;53.172;8.256;2023-03-04T04:09:43;7.30;;;1.57;;
16063;SDS011;8136;53.172;8.256;2023-03-04T04:12:10;3.53;;;0.93;;
16063;SDS011;8136;53.172;8.256;2023-03-04T04:14:40;7.43;;;1.30;;
16063;SDS011;8136;53.172;8.256;2023-03-04T04:17:07;6.40;;;1.27;;
16063;SDS011;8136;53.172;8.256;2023-03-04T04:19:34;7.53;;;1.20;;
16063;SDS011;8136;53.172;8.256;2023-03-04T04:22:02;4.30;;;1.30;;
16063;SDS011;8136;53.172;8.256;2023-03-04T04:24:48;5.60;;;1.17;;
16063;SDS011;8136;53.172;8.256;2023-03-04T04:27:15;3.90;;;1.23;;
16063;SDS011;8136;53.172;8.256;2023-03-04T04:29:42;8.60;;;1.43;;
16063;SDS011;8136;53.172;8.256;2023-03-04T04:32:09;3.83;;;1.00;;
16063;SDS011;8136;53.172;8.256;2023-03-04T04:34:37;7.37;;;1.67;;
16063;SDS011;8136;53.172;8.256;2023-03-04T04:37:03;6.63;;;1.77;;
16063;SDS011;8136;53.172;8.256;2023-03-04T04:39:30;5.63;;;1.20;;
16063;SDS011;8136;53.172;8.256;2023-03-04T04:41:58;6.07;;;1.43;;
16063;SDS011;8136;53.172;8.256;2023-03-04T04:44:25;7.07;;;1.30;;
16063;SDS011;8136;53.172;8.256;2023-03-04T04:46:52;4.77;;;1.50;;
16063;SDS011;8136;53.172;8.256;2023-03-04T04:49:19;3.97;;;1.33;;
16063;SDS011;8136;53.172;8.256;2023-03-04T04:51:45;6.57;;;1.50;;
16063;SDS011;8136;53.172;8.256;2023-03-04T04:54:13;4.10;;;1.00;;
16063;SDS011;8136;53.172;8.256;2023-03-04T04:56:40;3.67;;;1.40;;
16063;SDS011;8136;53.172;8.256;2023-03-04T04:59:08;6.03;;;1.70;;
16063;SDS011;8136;53.172;8.256;2023-03-04T05:01:35;4.97;;;1.07;;
16063;SDS011;8136;53.172;8.256;2023-03-04T05:04:02;6.23;;;1.10;;
16063;SDS011;8136;53.172;8.256;2023-03-04T05:06:29;6.27;;;1.10;;
16063;SDS011;8136;53.172;8.256;2023-03-04T05:08:56;6.47;;;1.20;;
16063;SDS011;8136;53.172;8.256;2023-03-04T05:11:23;7.13;;;1.63;;
16063;SDS011;8136;53.172;8.256;2023-03-04T05:13:50;5.00;;;1.23;;
16063;SDS011;8136;53.172;8.256;2023-03-04T05:16:18;11.27;;;1.80;;
16063;SDS011;8136;53.172;8.256;2023-03-04T05:18:45;5.53;;;1.50;;
16063;SDS011;8136;53.172;8.256;2023-03-04T05:21:12;5.77;;;1.10;;
16063;SDS011;8136;53.172;8.256;2023-03-04T05:23:39;9.07;;;1.30;;
16063;SDS011;8136;53.172;8.256;2023-03-04T05:26:08;5.73;;;1.10;;
16063;SDS011;8136;53.172;8.256;2023-03-04T05:28:38;7.43;;;1.90;;
16063;SDS011;8136;53.172;8.256;2023-03-04T05:31:05;5.03;;;1.50;;
16063;SDS011;8136;53.172;8.256;2023-03-04T05:33:34;7.60;;;1.67;;
16063;SDS011;8136;53.172;8.256;2023-03-04T05:36:03;7.50;;;1.70;;
16063;SDS011;8136;53.172;8.256;2023-03-04T05:38:31;7.80;;;1.77;;
16063;SDS011;8136;53.172;8.256;2023-03-04T05:40:58;7.33;;;1.47;;
16063;SDS011;8136;53.172;8.256;2023-03-04T05:43:26;6.93;;;1.60;;
16063;SDS011;8136;53.172;8.256;2023-03-04T05:45:54;7.53;;;1.50;;
16063;SDS011;8136;53.172;8.256;2023-03-04T05:48:21;5.27;;;1.70;;
16063;SDS011;8136;53.172;8.256;2023-03-04T05:50:53;10.30;;;1.37;;
16063;SDS011;8136;53.172;8.256;2023-03-04T05:53:20;6.63;;;1.87;;
16063;SDS011;8136;53.172;8.256;2023-03-04T05:55:47;5.97;;;1.50;;
16063;SDS011;8136;53.172;8.256;2023-03-04T05:58:14;6.57;;;1.53;;
16063;SDS011;8136;53.172;8.256;2023-03-04T06:00:41;9.00;;;1.50;;
16063;SDS011;8136;53.172;8.256;2023-03-04T06:03:10;4.23;;;1.33;;
16063;SDS011;8136;53.172;8.256;2023-03-04T06:05:40;5.93;;;1.73;;
16063;SDS011;8136;53.172;8.256;2023-03-04T06:08:09;6.60;;;1.47;;
16063;SDS011;8136;53.172;8.256;2023-03-04T06:10:36;3.57;;;1.47;;
16063;SDS011;8136;53.172;8.256;2023-03-04T06:13:04;6.73;;;1.53;;
16063;SDS011;8136;53.172;8.256;2023-03-04T06:15:30;5.70;;;1.60;;
16063;SDS011;8136;53.172;8.256;2023-03-04T06:17:57;7.53;;;1.33;;
16063;SDS011;8136;53.172;8.256;2023-03-04T06:20:24;4.10;;;1.20;;
16063;SDS011;8136;53.172;8.256;2023-03-04T06:22:51;3.97;;;1.00;;
16063;SDS011;8136;53.172;8.256;2023-03-04T06:25:19;4.90;;;1.30;;
16063;SDS011;8136;53.172;8.256;2023-03-04T06:27:46;3.83;;;1.50;;
16063;SDS011;8136;53.172;8.256;2023-03-04T06:30:13;4.23;;;1.37;;
16063;SDS011;8136;53.172;8.256;2023-03-04T06:32:40;4.03;;;1.13;;
16063;SDS011;8136;53.172;8.256;2023-03-04T06:35:08;3.13;;;1.27;;
16063;SDS011;8136;53.172;8.256;2023-03-04T06:37:35;5.43;;;1.53;;
16063;SDS011;8136;53.172;8.256;2023-03-04T06:40:02;4.30;;;1.13;;
16063;SDS011;8136;53.172;8.256;2023-03-04T06:42:30;5.83;;;1.00;;
16063;SDS011;8136;53.172;8.256;2023-03-04T06:44:57;2.63;;;1.10;;
16063;SDS011;8136;53.172;8.256;2023-03-04T06:47:24;3.83;;;1.50;;
16063;SDS011;8136;53.172;8.256;2023-03-04T06:49:51;7.60;;;1.40;;
16063;SDS011;8136;53.172;8.256;2023-03-04T06:52:17;6.17;;;1.50;;
16063;SDS011;8136;53.172;8.256;2023-03-04T06:54:44;5.47;;;2.07;;
16063;SDS011;8136;53.172;8.256;2023-03-04T06:57:11;4.20;;;1.57;;
16063;SDS011;8136;53.172;8.256;2023-03-04T06:59:39;8.93;;;1.40;;
16063;SDS011;8136;53.172;8.256;2023-03-04T07:02:07;10.43;;;1.90;;
16063;SDS011;8136;53.172;8.256;2023-03-04T07:04:36;14.40;;;2.53;;
16063;SDS011;8136;53.172;8.256;2023-03-04T07:07:03;7.67;;;1.90;;
16063;SDS011;8136;53.172;8.256;2023-03-04T07:09:29;9.33;;;1.67;;
16063;SDS011;8136;53.172;8.256;2023-03-04T07:11:56;10.50;;;2.30;;
16063;SDS011;8136;53.172;8.256;2023-03-04T07:14:23;10.90;;;1.97;;
16063;SDS011;8136;53.172;8.256;2023-03-04T07:16:53;11.10;;;1.87;;
16063;SDS011;8136;53.172;8.256;2023-03-04T07:19:20;9.30;;;1.90;;
16063;SDS011;8136;53.172;8.256;2023-03-04T07:21:47;11.67;;;2.67;;
16063;SDS011;8136;53.172;8.256;2023-03-04T07:24:14;13.30;;;2.50;;
16063;SDS011;8136;53.172;8.256;2023-03-04T07:26:41;9.53;;;2.30;;
16063;SDS011;8136;53.172;8.256;2023-03-04T07:29:07;10.97;;;2.70;;
16063;SDS011;8136;53.172;8.256;2023-03-04T07:31:34;12.97;;;2.53;;
16063;SDS011;8136;53.172;8.256;2023-03-04T07:34:03;12.07;;;2.20;;
16063;SDS011;8136;53.172;8.256;2023-03-04T07:36:32;12.10;;;2.70;;
16063;SDS011;8136;53.172;8.256;2023-03-04T07:39:00;17.00;;;2.73;;
16063;SDS011;8136;53.172;8.256;2023-03-04T07:41:27;11.80;;;2.50;;
16063;SDS011;8136;53.172;8.256;2023-03-04T07:43:55;13.73;;;3.20;;
16063;SDS011;8136;53.172;8.256;2023-03-04T07:46:22;15.37;;;2.60;;
16063;SDS011;8136;53.172;8.256;2023-03-04T07:48:49;11.03;;;2.33;;
16063;SDS011;8136;53.172;8.256;2023-03-04T07:51:18;9.33;;;1.97;;
16063;SDS011;8136;53.172;8.256;2023-03-04T07:53:47;20.70;;;2.63;;
16063;SDS011;8136;53.172;8.256;2023-03-04T07:56:16;15.67;;;3.07;;
16063;SDS011;8136;53.172;8.256;2023-03-04T07:58:44;9.77;;;2.07;;
16063;SDS011;8136;53.172;8.256;2023-03-04T08:01:12;11.57;;;2.30;;
16063;SDS011;8136;53.172;8.256;2023-03-04T08:03:40;14.73;;;2.90;;
16063;SDS011;8136;53.172;8.256;2023-03-04T08:06:08;12.10;;;3.00;;
16063;SDS011;8136;53.172;8.256;2023-03-04T08:08:37;10.70;;;2.83;;
16063;SDS011;8136;53.172;8.256;2023-03-04T08:11:04;13.40;;;2.83;;
16063;SDS011;8136;53.172;8.256;2023-03-04T08:13:33;19.77;;;3.47;;
16063;SDS011;8136;53.172;8.256;2023-03-04T08:16:00;14.17;;;2.67;;
16063;SDS011;8136;53.172;8.256;2023-03-04T08:18:27;14.03;;;3.07;;
16063;SDS011;8136;53.172;8.256;2023-03-04T08:20:53;13.20;;;2.67;;
16063;SDS011;8136;53.172;8.256;2023-03-04T08:23:20;13.60;;;2.90;;
16063;SDS011;8136;53.172;8.256;2023-03-04T08:25:49;14.07;;;3.23;;
16063;SDS011;8136;53.172;8.256;2023-03-04T08:28:16;10.20;;;2.27;;
16063;SDS011;8136;53.172;8.256;2023-03-04T08:30:42;14.07;;;2.20;;
16063;SDS011;8136;53.172;8.256;2023-03-04T08:33:09;15.70;;;2.57;;
16063;SDS011;8136;53.172;8.256;2023-03-04T08:35:36;13.23;;;2.50;;
16063;SDS011;8136;53.172;8.256;2023-03-04T08:38:05;9.67;;;2.50;;
16063;SDS011;8136;53.172;8.256;2023-03-04T08:40:32;7.77;;;1.80;;
16063;SDS011;8136;53.172;8.256;2023-03-04T08:43:04;12.17;;;2.70;;
16063;SDS011;8136;53.172;8.256;2023-03-04T08:45:30;13.87;;;2.47;;
16063;SDS011;8136;53.172;8.256;2023-03-04T08:47:57;11.87;;;2.30;;
16063;SDS011;8136;53.172;8.256;2023-03-04T08:50:24;14.63;;;2.47;;
16063;SDS011;8136;53.172;8.256;2023-03-04T08:52:52;9.00;;;1.83;;
16063;SDS011;8136;53.172;8.256;2023-03-04T08:55:20;12.87;;;2.00;;
16063;SDS011;8136;53.172;8.256;2023-03-04T08:57:47;10.07;;;2.27;;
16063;SDS011;8136;53.172;8.256;2023-03-04T09:00:15;10.40;;;2.00;;
16063;SDS011;8136;53.172;8.256;2023-03-04T09:02:43;13.17;;;2.00;;
16063;SDS011;8136;53.172;8.256;2023-03-04T09:05:09;11.57;;;2.47;;
16063;SDS011;8136;53.172;8.256;2023-03-04T09:07:36;12.57;;;2.20;;
16063;SDS011;8136;53.172;8.256;2023-03-04T09:10:03;12.63;;;2.03;;
16063;SDS011;8136;53.172;8.256;2023-03-04T09:15:56;13.43;;;3.00;;
16063;SDS011;8136;53.172;8.256;2023-03-04T09:18:37;9.20;;;2.03;;
16063;SDS011;8136;53.172;8.256;2023-03-04T09:21:06;10.40;;;2.57;;
16063;SDS011;8136;53.172;8.256;2023-03-04T09:23:48;10.53;;;2.23;;
16063;SDS011;8136;53.172;8.256;2023-03-04T09:26:21;10.13;;;1.90;;
16063;SDS011;8136;53.172;8.256;2023-03-04T09:28:49;12.23;;;2.47;;
16063;SDS011;8136;53.172;8.256;2023-03-04T09:31:18;10.30;;;3.03;;
16063;SDS011;8136;53.172;8.256;2023-03-04T09:33:46;12.97;;;2.40;;
16063;SDS011;8136;53.172;8.256;2023-03-04T09:36:13;11.90;;;2.97;;
16063;SDS011;8136;53.172;8.256;2023-03-04T09:38:41;11.00;;;2.47;;
16063;SDS011;8136;53.172;8.256;2023-03-04T09:41:13;12.67;;;3.00;;
16063;SDS011;8136;53.172;8.256;2023-03-04T09:43:42;12.47;;;2.53;;
16063;SDS011;8136;53.172;8.256;2023-03-04T09:46:11;12.67;;;2.33;;
16063;SDS011;8136;53.172;8.256;2023-03-04T09:48:44;9.33;;;2.40;;
16063;SDS011;8136;53.172;8.256;2023-03-04T09:51:22;12.73;;;2.77;;
16063;SDS011;8136;53.172;8.256;2023-03-04T09:54:38;10.67;;;2.67;;
16063;SDS011;8136;53.172;8.256;2023-03-04T09:57:28;16.13;;;2.90;;
16063;SDS011;8136;53.172;8.256;2023-03-04T10:00:21;14.83;;;2.63;;
16063;SDS011;8136;53.172;8.256;2023-03-04T10:03:13;10.80;;;2.80;;
16063;SDS011;8136;53.172;8.256;2023-03-04T10:05:50;17.47;;;3.90;;
16063;SDS011;8136;53.172;8.256;2023-03-04T10:08:35;9.00;;;2.97;;
16063;SDS011;8136;53.172;8.256;2023-03-04T10:11:08;9.40;;;2.70;;
16063;SDS011;8136;53.172;8.256;2023-03-04T10:13:40;9.47;;;2.57;;
16063;SDS011;8136;53.172;8.256;2023-03-04T10:16:17;11.03;;;3.03;;
16063;SDS011;8136;53.172;8.256;2023-03-04T10:18:48;11.27;;;2.53;;
16063;SDS011;8136;53.172;8.256;2023-03-04T10:21:21;13.07;;;2.90;;
16063;SDS011;8136;53.172;8.256;2023-03-04T10:23:51;15.27;;;2.60;;
16063;SDS011;8136;53.172;8.256;2023-03-04T10:26:19;12.43;;;2.70;;
16063;SDS011;8136;53.172;8.256;2023-03-04T10:29:23;14.17;;;2.23;;
16063;SDS011;8136;53.172;8.256;2023-03-04T10:31:54;8.57;;;2.20;;
16063;SDS011;8136;53.172;8.256;2023-03-04T10:34:20;13.33;;;2.83;;
16063;SDS011;8136;53.172;8.256;2023-03-04T10:36:59;11.67;;;2.57;;
16063;SDS011;8136;53.172;8.256;2023-03-04T10:39:30;8.23;;;2.60;;
16063;SDS011;8136;53.172;8.256;2023-03-04T10:42:00;13.43;;;2.43;;
16063;SDS011;8136;53.172;8.256;2023-03-04T10:44:29;16.53;;;2.80;;
16063;SDS011;8136;53.172;8.256;2023-03-04T10:46:58;12.17;;;2.67;;
16063;SDS011;8136;53.172;8.256;2023-03-04T10:49:27;9.33;;;2.30;;
16063;SDS011;8136;53.172;8.256;2023-03-04T10:52:00;7.53;;;2.23;;
16063;SDS011;8136;53.172;8.256;2023-03-04T10:54:30;13.50;;;2.87;;
16063;SDS011;8136;53.172;8.256;2023-03-04T10:57:01;11.07;;;2.77;;
16063;SDS011;8136;53.172;8.256;2023-03-04T10:59:39;6.57;;;2.23;;
16063;SDS011;8136;53.172;8.256;2023-03-04T11:02:18;10.20;;;2.30;;
16063;SDS011;8136;53.172;8.256;2023-03-04T11:04:52;9.77;;;2.10;;
16063;SDS011;8136;53.172;8.256;2023-03-04T11:07:23;16.60;;;2.77;;
16063;SDS011;8136;53.172;8.256;2023-03-04T11:09:51;9.80;;;2.30;;
16063;SDS011;8136;53.172;8.256;2023-03-04T11:12:19;16.13;;;2.70;;
16063;SDS011;8136;53.172;8.256;2023-03-04T11:14:56;11.87;;;2.73;;
16063;SDS011;8136;53.172;8.256;2023-03-04T11:17:24;12.40;;;2.60;;
16063;SDS011;8136;53.172;8.256;2023-03-04T11:19:54;11.00;;;2.73;;
16063;SDS011;8136;53.172;8.256;2023-03-04T11:22:25;11.07;;;2.53;;
16063;SDS011;8136;53.172;8.256;2023-03-04T11:24:57;10.10;;;2.60;;
16063;SDS011;8136;53.172;8.256;2023-03-04T11:27:32;10.97;;;2.37;;
16063;SDS011;8136;53.172;8.256;2023-03-04T11:30:12;9.57;;;2.23;;
16063;SDS011;8136;53.172;8.256;2023-03-04T11:32:49;15.27;;;3.30;;
16063;SDS011;8136;53.172;8.256;2023-03-04T11:35:21;11.40;;;3.10;;
16063;SDS011;8136;53.172;8.256;2023-03-04T11:37:58;12.30;;;2.90;;
16063;SDS011;8136;53.172;8.256;2023-03-04T11:40:32;11.47;;;2.67;;
16063;SDS011;8136;53.172;8.256;2023-03-04T11:43:05;16.13;;;2.93;;
16063;SDS011;8136;53.172;8.256;2023-03-04T11:45:43;11.23;;;2.70;;
16063;SDS011;8136;53.172;8.256;2023-03-04T11:48:34;13.00;;;2.80;;
16063;SDS011;8136;53.172;8.256;2023-03-04T11:51:10;12.80;;;3.00;;
16063;SDS011;8136;53.172;8.256;2023-03-04T11:53:51;14.53;;;2.97;;
16063;SDS011;8136;53.172;8.256;2023-03-04T11:56:30;10.80;;;2.27;;
16063;SDS011;8136;53.172;8.256;2023-03-04T11:59:07;9.53;;;2.17;;
16063;SDS011;8136;53.172;8.256;2023-03-04T12:04:57;12.93;;;2.40;;
16063;SDS011;8136;53.172;8.256;2023-03-04T12:07:47;16.07;;;2.80;;
16063;SDS011;8136;53.172;8.256;2023-03-04T12:10:38;17.07;;;3.70;;
16063;SDS011;8136;53.172;8.256;2023-03-04T12:13:29;9.70;;;2.47;;
16063;SDS011;8136;53.172;8.256;2023-03-04T12:16:15;7.10;;;2.03;;
16063;SDS011;8136;53.172;8.256;2023-03-04T12:18:53;12.60;;;2.37;;
16063;SDS011;8136;53.172;8.256;2023-03-04T12:21:32;12.10;;;2.70;;
16063;SDS011;8136;53.172;8.256;2023-03-04T12:27:23;11.60;;;2.70;;
16063;SDS011;8136;53.172;8.256;2023-03-04T12:29:57;15.20;;;3.20;;
16063;SDS011;8136;53.172;8.256;2023-03-04T12:32:32;14.83;;;3.40;;
16063;SDS011;8136;53.172;8.256;2023-03-04T12:35:20;14.03;;;2.67;;
16063;SDS011;8136;53.172;8.256;2023-03-04T12:38:00;21.07;;;3.63;;
16063;SDS011;8136;53.172;8.256;2023-03-04T12:40:42;16.33;;;4.30;;
16063;SDS011;8136;53.172;8.256;2023-03-04T12:43:36;11.57;;;2.30;;
16063;SDS011;8136;53.172;8.256;2023-03-04T12:46:16;13.10;;;2.53;;
16063;SDS011;8136;53.172;8.256;2023-03-04T12:48:54;15.27;;;3.47;;
16063;SDS011;8136;53.172;8.256;2023-03-04T12:51:49;12.13;;;2.60;;
16063;SDS011;8136;53.172;8.256;2023-03-04T12:54:31;7.77;;;2.80;;
16063;SDS011;8136;53.172;8.256;2023-03-04T12:57:46;12.70;;;2.03;;
16063;SDS011;8136;53.172;8.256;2023-03-04T13:00:27;12.70;;;2.00;;
16063;SDS011;8136;53.172;8.256;2023-03-04T13:03:08;11.33;;;2.43;;
16063;SDS011;8136;53.172;8.256;2023-03-04T13:05:44;9.33;;;2.67;;
16063;SDS011;8136;53.172;8.256;2023-03-04T13:08:35;12.17;;;2.70;;
16063;SDS011;8136;53.172;8.256;2023-03-04T13:14:25;16.30;;;2.90;;
16063;SDS011;8136;53.172;8.256;2023-03-04T13:16:59;13.57;;;2.87;;
16063;SDS011;8136;53.172;8.256;2023-03-04T13:19:46;11.93;;;2.80;;
16063;SDS011;8136;53.172;8.256;2023-03-04T13:22:29;10.23;;;2.43;;
16063;SDS011;8136;53.172;8.256;2023-03-04T13:28:14;9.83;;;2.50;;
16063;SDS011;8136;53.172;8.256;2023-03-04T13:33:57;12.30;;;2.60;;
16063;SDS011;8136;53.172;8.256;2023-03-04T13:36:32;9.67;;;2.70;;
16063;SDS011;8136;53.172;8.256;2023-03-04T13:39:22;7.83;;;1.80;;
16063;SDS011;8136;53.172;8.256;2023-03-04T13:45:29;12.23;;;2.03;;
16063;SDS011;8136;53.172;8.256;2023-03-04T13:47:58;15.97;;;2.23;;
16063;SDS011;8136;53.172;8.256;2023-03-04T13:50:38;9.37;;;2.37;;
16063;SDS011;8136;53.172;8.256;2023-03-04T13:56:17;6.90;;;1.77;;
16063;SDS011;8136;53.172;8.256;2023-03-04T13:58:48;13.00;;;2.43;;
16063;SDS011;8136;53.172;8.256;2023-03-04T14:01:24;9.93;;;2.23;;
16063;SDS011;8136;53.172;8.256;2023-03-04T14:04:00;12.37;;;2.10;;
16063;SDS011;8136;53.172;8.256;2023-03-04T14:07:34;8.20;;;2.60;;
16063;SDS011;8136;53.172;8.256;2023-03-04T14:10:54;13.57;;;2.40;;
16063;SDS011;8136;53.172;8.256;2023-03-04T14:13:21;8.60;;;2.77;;
16063;SDS011;8136;53.172;8.256;2023-03-04T14:15:52;7.07;;;1.73;;
16063;SDS011;8136;53.172;8.256;2023-03-04T14:18:25;13.10;;;2.53;;
16063;SDS011;8136;53.172;8.256;2023-03-04T14:20:56;7.63;;;2.10;;
16063;SDS011;8136;53.172;8.256;2023-03-04T14:23:29;11.00;;;2.03;;
16063;SDS011;8136;53.172;8.256;2023-03-04T14:26:04;11.43;;;2.23;;
16063;SDS011;8136;53.172;8.256;2023-03-04T14:28:42;12.20;;;2.33;;
16063;SDS011;8136;53.172;8.256;2023-03-04T14:31:14;10.70;;;2.73;;
16063;SDS011;8136;53.172;8.256;2023-03-04T14:33:43;11.07;;;2.57;;
16063;SDS011;8136;53.172;8.256;2023-03-04T14:36:14;19.73;;;2.53;;
16063;SDS011;8136;53.172;8.256;2023-03-04T14:38:48;5.77;;;1.90;;
16063;SDS011;8136;53.172;8.256;2023-03-04T14:41:23;12.97;;;2.33;;
16063;SDS011;8136;53.172;8.256;2023-03-04T14:44:17;13.33;;;2.47;;
16063;SDS011;8136;53.172;8.256;2023-03-04T14:46:51;8.60;;;2.13;;
16063;SDS011;8136;53.172;8.256;2023-03-04T14:49:21;9.33;;;1.70;;
16063;SDS011;8136;53.172;8.256;2023-03-04T14:51:49;10.93;;;2.60;;
16063;SDS011;8136;53.172;8.256;2023-03-04T14:54:29;7.50;;;2.37;;
16063;SDS011;8136;53.172;8.256;2023-03-04T14:56:58;10.23;;;1.90;;
16063;SDS011;8136;53.172;8.256;2023-03-04T14:59:27;7.37;;;2.33;;
16063;SDS011;8136;53.172;8.256;2023-03-04T15:02:13;11.90;;;2.33;;
16063;SDS011;8136;53.172;8.256;2023-03-04T15:04:44;11.83;;;2.33;;
16063;SDS011;8136;53.172;8.256;2023-03-04T15:07:13;9.53;;;2.20;;
16063;SDS011;8136;53.172;8.256;2023-03-04T15:09:49;11.13;;;2.57;;
16063;SDS011;8136;53.172;8.256;2023-03-04T15:12:22;10.70;;;2.20;;
16063;SDS011;8136;53.172;8.256;2023-03-04T15:14:51;6.90;;;1.90;;
16063;SDS011;8136;53.172;8.256;2023-03-04T15:17:23;14.20;;;2.30;;
16063;SDS011;8136;53.172;8.256;2023-03-04T15:19:57;12.27;;;2.77;;
16063;SDS011;8136;53.172;8.256;2023-03-04T15:22:25;14.17;;;2.60;;
16063;SDS011;8136;53.172;8.256;2023-03-04T15:24:53;9.73;;;2.40;;
16063;SDS011;8136;53.172;8.256;2023-03-04T15:27:21;6.17;;;2.03;;
16063;SDS011;8136;53.172;8.256;2023-03-04T15:29:49;10.53;;;1.80;;
16063;SDS011;8136;53.172;8.256;2023-03-04T15:32:20;10.57;;;2.33;;
16063;SDS011;8136;53.172;8.256;2023-03-04T15:34:47;8.43;;;1.93;;
16063;SDS011;8136;53.172;8.256;2023-03-04T15:37:14;9.77;;;1.73;;
16063;SDS011;8136;53.172;8.256;2023-03-04T15:39:46;8.87;;;2.40;;
16063;SDS011;8136;53.172;8.256;2023-03-04T15:42:14;10.20;;;1.97;;
16063;SDS011;8136;53.172;8.256;2023-03-04T15:44:41;9.90;;;2.40;;